createdAt,value
2019-02-03T00:00:30.026Z,257.65
2019-02-03T00:02:58.832Z,259.80
2019-02-03T00:05:27.725Z,266.57
2019-02-03T00:07:56.575Z,254.45
2019-02-03T00:10:25.323Z,264.27
2019-02-03T00:12:54.745Z,278.77
2019-02-03T00:15:24.367Z,245.57
2019-02-03T00:17:53.319Z,252.90
2019-02-03T00:20:22.413Z,251.77
2019-02-03T00:22:51.178Z,257.77
2019-02-03T00:25:20.703Z,260.95
2019-02-03T00:27:49.535Z,258.32
2019-02-03T00:30:18.429Z,252.65
2019-02-03T00:32:47.314Z,257.25
2019-02-03T00:35:16.418Z,252.62
2019-02-03T00:37:45.209Z,255.92
2019-02-03T00:40:14.312Z,240.97
2019-02-03T00:42:43.078Z,239.93
2019-02-03T00:45:12.488Z,218.70
2019-02-03T00:47:41.515Z,229.90
2019-02-03T00:50:11.496Z,247.60
2019-02-03T00:52:40.285Z,223.93
2019-02-03T00:55:11.753Z,259.18
2019-02-03T00:57:40.478Z,230.60
2019-02-03T01:00:11.108Z,254.82
2019-02-03T01:02:39.852Z,240.75
2019-02-03T01:05:14.240Z,239.32
2019-02-03T01:07:44.929Z,243.17
2019-02-03T01:10:16.409Z,246.95
2019-02-03T01:12:45.783Z,236.68
2019-02-03T01:15:15.688Z,233.65
2019-02-03T01:17:44.521Z,230.03
2019-02-03T01:20:15.075Z,237.95
2019-02-03T01:22:44.800Z,221.50
2019-02-03T01:25:14.930Z,231.85
2019-02-03T01:27:43.783Z,235.65
2019-02-03T01:30:19.723Z,238.52
2019-02-03T01:32:48.562Z,239.55
2019-02-03T01:35:17.509Z,224.32
2019-02-03T01:37:46.486Z,248.32
2019-02-03T01:40:17.857Z,249.98
2019-02-03T01:42:46.713Z,237.80
2019-02-03T01:45:17.816Z,224.07
2019-02-03T01:47:46.885Z,223.20
2019-02-03T01:50:16.247Z,242.03
2019-02-03T01:52:45.376Z,235.08
2019-02-03T01:55:19.061Z,235.57
2019-02-03T01:57:47.975Z,240.77
2019-02-03T02:00:21.816Z,245.97
2019-02-03T02:02:51.026Z,235.00
2019-02-03T02:05:20.377Z,252.47
2019-02-03T02:07:51.616Z,251.90
2019-02-03T02:10:21.917Z,250.72
2019-02-03T02:12:50.923Z,253.20
2019-02-03T02:15:20.106Z,258.10
2019-02-03T02:17:49.585Z,242.90
2019-02-03T02:20:20.629Z,232.92
2019-02-03T02:22:49.397Z,250.15
2019-02-03T02:25:18.212Z,251.77
2019-02-03T02:27:47.063Z,249.20
2019-02-03T02:30:21.129Z,258.60
2019-02-03T02:32:49.978Z,251.32
2019-02-03T02:35:18.819Z,249.85
2019-02-03T02:37:48.468Z,249.90
2019-02-03T02:40:18.964Z,262.52
2019-02-03T02:42:47.876Z,234.72
2019-02-03T02:45:17.589Z,253.67
2019-02-03T02:47:46.674Z,243.73
2019-02-03T02:50:26.954Z,227.72
2019-02-03T02:52:55.716Z,228.37
2019-02-03T02:55:24.534Z,241.50
2019-02-03T02:57:53.259Z,237.63
2019-02-03T03:00:22.134Z,244.75
2019-02-03T03:02:50.937Z,222.22
2019-02-03T03:05:19.742Z,237.48
2019-02-03T03:07:48.694Z,220.55
2019-02-03T03:10:17.981Z,226.35
2019-02-03T03:12:48.072Z,220.60
2019-02-03T03:15:17.733Z,222.73
2019-02-03T03:17:46.960Z,229.80
2019-02-03T03:20:17.619Z,216.68
2019-02-03T03:22:46.597Z,220.12
2019-02-03T03:25:16.657Z,224.25
2019-02-03T03:27:45.439Z,226.58
2019-02-03T03:30:22.061Z,227.13
2019-02-03T03:32:50.823Z,229.18
2019-02-03T03:35:19.652Z,227.05
2019-02-03T03:37:48.353Z,228.42
2019-02-03T03:40:19.620Z,236.57
2019-02-03T03:42:48.312Z,237.35
2019-02-03T03:45:18.534Z,221.32
2019-02-03T03:47:47.400Z,241.90
2019-02-03T03:50:17.231Z,230.80
2019-02-03T03:52:46.020Z,241.95
2019-02-03T03:55:14.933Z,229.85
2019-02-03T03:57:43.833Z,237.15
2019-02-03T04:00:23.737Z,230.15
2019-02-03T04:02:53.069Z,237.20
2019-02-03T04:05:22.021Z,239.63
2019-02-03T04:07:50.807Z,218.20
2019-02-03T04:10:20.833Z,230.98
2019-02-03T04:12:49.504Z,246.25
2019-02-03T04:15:19.231Z,240.70
2019-02-03T04:17:48.760Z,227.60
2019-02-03T04:20:25.970Z,222.45
2019-02-03T04:22:54.819Z,230.40
2019-02-03T04:25:23.478Z,241.85
2019-02-03T04:27:52.191Z,225.00
2019-02-03T04:30:21.048Z,206.38
2019-02-03T04:32:49.936Z,226.77
2019-02-03T04:35:18.839Z,225.90
2019-02-03T04:37:47.618Z,226.27
2019-02-03T04:40:17.149Z,207.52
2019-02-03T04:42:46.226Z,211.50
2019-02-03T04:45:16.872Z,202.43
2019-02-03T04:47:46.877Z,220.55
2019-02-03T04:50:16.922Z,217.15
2019-02-03T04:52:45.727Z,208.60
2019-02-03T04:55:18.898Z,217.93
2019-02-03T04:57:47.677Z,216.20
2019-02-03T05:00:21.417Z,216.48
2019-02-03T05:02:50.245Z,222.48
2019-02-03T05:05:19.008Z,217.28
2019-02-03T05:07:47.920Z,223.35
2019-02-03T05:10:17.402Z,227.15
2019-02-03T05:12:46.464Z,215.52
2019-02-03T05:15:17.395Z,227.90
2019-02-03T05:17:46.182Z,225.20
2019-02-03T05:20:16.556Z,217.55
2019-02-03T05:22:45.686Z,204.95
2019-02-03T05:25:14.516Z,204.80
2019-02-03T05:27:43.441Z,192.77
2019-02-03T05:30:17.328Z,196.78
2019-02-03T05:32:46.127Z,192.05
2019-02-03T05:35:14.964Z,171.10
2019-02-03T05:37:43.862Z,181.12
2019-02-03T05:40:13.280Z,180.80
2019-02-03T05:42:42.161Z,170.95
2019-02-03T05:45:13.465Z,175.57
2019-02-03T05:47:42.165Z,182.12
2019-02-03T05:50:12.461Z,168.65
2019-02-03T05:52:41.432Z,193.32
2019-02-03T05:55:10.292Z,185.88
2019-02-03T05:57:39.058Z,195.70
2019-02-03T06:00:10.406Z,181.32
2019-02-03T06:02:39.221Z,189.40
2019-02-03T06:05:09.261Z,184.15
2019-02-03T06:07:39.108Z,179.60
2019-02-03T06:10:10.912Z,204.82
2019-02-03T06:12:40.641Z,185.88
2019-02-03T06:15:09.652Z,205.20
2019-02-03T06:17:38.412Z,195.32
2019-02-03T06:20:08.159Z,185.73
2019-02-03T06:22:36.863Z,187.30
2019-02-03T06:25:06.878Z,190.73
2019-02-03T06:27:35.733Z,180.52
2019-02-03T06:30:08.335Z,187.12
2019-02-03T06:32:37.096Z,183.27
2019-02-03T06:35:05.948Z,190.22
2019-02-03T06:37:34.774Z,176.72
2019-02-03T06:40:03.882Z,173.35
2019-02-03T06:42:32.545Z,189.25
2019-02-03T06:45:04.252Z,177.70
2019-02-03T06:47:33.078Z,193.50
2019-02-03T06:50:01.844Z,194.13
2019-02-03T06:52:30.585Z,163.72
2019-02-03T06:54:59.331Z,179.93
2019-02-03T06:57:28.353Z,163.92
2019-02-03T06:59:57.071Z,180.18
2019-02-03T07:02:25.729Z,172.80
2019-02-03T07:04:54.457Z,165.68
2019-02-03T07:07:23.215Z,168.40
2019-02-03T07:10:00.353Z,175.05
2019-02-03T07:12:22.293Z,163.62
2019-02-03T07:14:51.033Z,160.97
2019-02-03T07:17:19.769Z,162.57
2019-02-03T07:19:48.540Z,161.37
2019-02-03T07:22:17.277Z,165.90
2019-02-03T07:24:46.218Z,161.35
2019-02-03T07:27:14.941Z,157.78
2019-02-03T07:29:43.830Z,156.15
2019-02-03T07:32:12.529Z,156.47
2019-02-03T07:34:41.392Z,161.47
2019-02-03T07:37:10.139Z,174.72
2019-02-03T07:39:38.952Z,165.30
2019-02-03T07:42:07.754Z,165.73
2019-02-03T07:44:36.453Z,161.20
2019-02-03T07:47:05.315Z,145.95
2019-02-03T07:49:35.108Z,147.55
2019-02-03T07:52:04.406Z,138.12
2019-02-03T07:54:33.384Z,147.78
2019-02-03T07:57:02.119Z,147.53
2019-02-03T07:59:30.835Z,146.02
2019-02-03T08:01:59.509Z,138.88
2019-02-03T08:04:28.397Z,140.15
2019-02-03T08:06:57.095Z,137.92
2019-02-03T08:09:26.175Z,129.60
2019-02-03T08:11:54.842Z,131.10
2019-02-03T08:14:23.619Z,142.43
2019-02-03T08:16:53.364Z,141.95
2019-02-03T08:19:22.316Z,135.93
2019-02-03T08:21:51.067Z,127.70
2019-02-03T08:24:20.141Z,142.28
2019-02-03T08:26:48.923Z,124.53
2019-02-03T08:29:17.647Z,135.72
2019-02-03T08:31:46.658Z,129.45
2019-02-03T08:34:15.537Z,119.02
2019-02-03T08:36:44.332Z,116.85
2019-02-03T08:39:13.348Z,123.40
2019-02-03T08:41:42.043Z,128.47
2019-02-03T08:44:10.789Z,124.75
2019-02-03T08:46:39.539Z,123.22
2019-02-03T08:49:08.212Z,123.42
2019-02-03T08:51:36.892Z,128.50
2019-02-03T08:54:06.136Z,122.92
2019-02-03T08:56:34.885Z,122.40
2019-02-03T08:59:03.630Z,128.70
2019-02-03T09:01:32.352Z,125.45
2019-02-03T09:04:01.044Z,120.02
2019-02-03T09:06:29.745Z,118.17
2019-02-03T09:08:58.425Z,108.92
2019-02-03T09:11:27.440Z,137.28
2019-02-03T09:13:56.193Z,112.10
2019-02-03T09:16:24.983Z,114.97
2019-02-03T09:18:53.655Z,114.25
2019-02-03T09:21:22.395Z,108.45
2019-02-03T09:23:51.131Z,109.87
2019-02-03T09:26:19.955Z,111.75
2019-02-03T09:28:48.900Z,108.85
2019-02-03T09:31:17.640Z,109.92
2019-02-03T09:33:46.381Z,109.87
2019-02-03T09:36:15.128Z,107.60
2019-02-03T09:38:44.111Z,106.05
2019-02-03T09:41:13.115Z,104.35
2019-02-03T09:43:41.904Z,109.42
2019-02-03T09:46:10.719Z,105.25
2019-02-03T09:48:39.487Z,112.35
2019-02-03T09:51:08.306Z,103.32
2019-02-03T09:53:36.976Z,91.05
2019-02-03T09:56:06.156Z,88.78
2019-02-03T09:58:34.915Z,81.10
2019-02-03T10:01:03.853Z,80.30
2019-02-03T10:03:32.691Z,91.72
2019-02-03T10:06:01.506Z,77.58
2019-02-03T10:08:40.406Z,81.17
2019-02-03T10:11:11.318Z,94.20
2019-02-03T10:13:31.169Z,76.47
2019-02-03T10:15:59.908Z,87.25
2019-02-03T10:18:28.651Z,80.72
2019-02-03T10:20:57.988Z,78.87
2019-02-03T10:23:26.892Z,67.20
2019-02-03T10:25:55.792Z,68.50
2019-02-03T10:28:25.925Z,60.33
2019-02-03T10:30:54.800Z,70.43
2019-02-03T10:33:23.499Z,67.37
2019-02-03T10:35:52.316Z,69.80
2019-02-03T10:38:21.059Z,58.93
2019-02-03T10:40:49.940Z,60.53
2019-02-03T10:43:18.784Z,62.27
2019-02-03T10:45:47.528Z,62.63
2019-02-03T10:48:16.364Z,61.33
2019-02-03T10:50:45.231Z,67.13
2019-02-03T10:53:14.008Z,64.97
2019-02-03T10:55:42.711Z,70.00
2019-02-03T10:58:11.547Z,68.57
2019-02-03T11:00:40.744Z,65.47
2019-02-03T11:03:09.473Z,66.40
2019-02-03T11:05:43.562Z,65.27
2019-02-03T11:08:13.857Z,64.97
2019-02-03T11:10:42.564Z,61.70
2019-02-03T11:13:11.410Z,59.10
2019-02-03T11:15:40.012Z,54.67
2019-02-03T11:18:08.932Z,56.73
2019-02-03T11:20:37.808Z,58.53
2019-02-03T11:23:06.632Z,57.00
2019-02-03T11:25:35.331Z,60.23
2019-02-03T11:28:04.932Z,49.90
2019-02-03T11:30:33.780Z,44.23
2019-02-03T11:33:05.826Z,46.10
2019-02-03T11:35:33.471Z,56.33
2019-02-03T11:38:02.281Z,45.33
2019-02-03T11:40:31.915Z,40.40
2019-02-03T11:43:00.644Z,42.13
2019-02-03T11:45:37.492Z,43.80
2019-02-03T11:48:09.012Z,45.47
2019-02-03T11:50:38.563Z,44.97
2019-02-03T11:53:12.252Z,43.40
2019-02-03T11:55:41.009Z,43.90
2019-02-03T11:58:10.840Z,41.57
2019-02-03T12:00:39.859Z,35.67
2019-02-03T12:03:09.004Z,36.33
2019-02-03T12:05:37.867Z,37.37
2019-02-03T12:08:07.022Z,38.60
2019-02-03T12:10:36.016Z,36.00
2019-02-03T12:13:06.096Z,37.73
2019-02-03T12:15:35.219Z,31.80
2019-02-03T12:18:04.032Z,30.47
2019-02-03T12:20:32.748Z,30.43
2019-02-03T12:23:01.549Z,36.53
2019-02-03T12:25:31.882Z,25.67
2019-02-03T12:28:00.605Z,31.70
2019-02-03T12:30:31.326Z,26.50
2019-02-03T12:33:00.604Z,32.50
2019-02-03T12:35:29.579Z,36.93
2019-02-03T12:37:58.605Z,27.43
2019-02-03T12:40:29.436Z,36.13
2019-02-03T12:42:58.362Z,28.73
2019-02-03T12:45:27.115Z,24.03
2019-02-03T12:47:55.951Z,25.43
2019-02-03T12:50:24.622Z,24.93
2019-02-03T12:52:53.400Z,26.23
2019-02-03T12:55:24.365Z,23.60
2019-02-03T12:57:53.142Z,23.00
2019-02-03T13:00:24.200Z,20.43
2019-02-03T13:02:52.987Z,21.50
2019-02-03T13:05:22.677Z,21.90
2019-02-03T13:07:51.692Z,22.93
2019-02-03T13:10:28.481Z,24.27
2019-02-03T13:12:57.219Z,24.83
2019-02-03T13:15:31.178Z,19.37
2019-02-03T13:17:59.954Z,29.70
2019-02-03T13:20:29.183Z,23.17
2019-02-03T13:22:58.323Z,28.60
2019-02-03T13:25:27.295Z,30.70
2019-02-03T13:27:55.971Z,23.27
2019-02-03T13:30:27.196Z,22.30
2019-02-03T13:32:55.806Z,24.13
2019-02-03T13:35:24.979Z,19.43
2019-02-03T13:37:55.513Z,20.10
2019-02-03T13:40:25.207Z,21.03
2019-02-03T13:42:53.936Z,25.40
2019-02-03T13:45:22.855Z,22.83
2019-02-03T13:47:51.568Z,22.40
2019-02-03T13:50:22.419Z,25.37
2019-02-03T13:52:51.575Z,16.03
2019-02-03T13:55:20.618Z,17.70
2019-02-03T13:57:50.112Z,19.57
2019-02-03T14:00:21.531Z,16.50
2019-02-03T14:02:50.205Z,14.17
2019-02-03T14:05:19.013Z,16.50
2019-02-03T14:07:47.615Z,17.60
2019-02-03T14:10:19.175Z,17.20
2019-02-03T14:12:49.797Z,14.63
2019-02-03T14:15:18.666Z,21.90
2019-02-03T14:17:47.277Z,17.20
2019-02-03T14:20:20.972Z,17.00
2019-02-03T14:22:49.891Z,12.77
2019-02-03T14:25:19.597Z,20.03
2019-02-03T14:27:48.482Z,18.43
2019-02-03T14:30:47.172Z,16.10
2019-02-03T14:33:16.046Z,17.20
2019-02-03T14:35:45.484Z,14.90
2019-02-03T14:38:14.457Z,18.00
2019-02-03T14:40:43.278Z,17.47
2019-02-03T14:43:12.062Z,14.27
2019-02-03T14:45:40.844Z,19.27
2019-02-03T14:48:09.557Z,14.13
2019-02-03T14:50:38.637Z,21.53
2019-02-03T14:53:09.864Z,11.63
2019-02-03T14:55:39.959Z,19.10
2019-02-03T14:58:08.923Z,18.70
2019-02-03T15:00:45.974Z,21.53
2019-02-03T15:03:16.767Z,16.77
2019-02-03T15:05:45.420Z,14.90
2019-02-03T15:08:14.152Z,15.50
2019-02-03T15:10:42.935Z,15.60
2019-02-03T15:13:15.129Z,18.73
2019-02-03T15:15:41.988Z,20.67
2019-02-03T15:18:10.639Z,16.93
2019-02-03T15:20:39.375Z,20.73
2019-02-03T15:23:08.071Z,18.70
2019-02-03T15:25:37.052Z,16.87
2019-02-03T15:28:10.522Z,21.73
2019-02-03T15:30:39.258Z,16.13
2019-02-03T15:33:07.951Z,17.13
2019-02-03T15:35:36.791Z,19.50
2019-02-03T15:38:06.451Z,20.17
2019-02-03T15:40:35.123Z,17.73
2019-02-03T15:43:04.351Z,18.83
2019-02-03T15:45:33.072Z,15.17
2019-02-03T15:48:01.680Z,17.70
2019-02-03T15:50:30.835Z,16.80
2019-02-03T15:52:59.502Z,16.57
2019-02-03T15:55:29.742Z,17.33
2019-02-03T15:57:58.624Z,18.13
2019-02-03T16:00:29.661Z,17.37
2019-02-03T16:02:58.704Z,17.80
2019-02-03T16:05:27.932Z,20.03
2019-02-03T16:07:56.704Z,16.03
2019-02-03T16:10:25.963Z,17.27
2019-02-03T16:12:55.070Z,17.83
2019-02-03T16:15:23.916Z,18.40
2019-02-03T16:17:52.583Z,18.90
2019-02-03T16:20:23.155Z,16.10
2019-02-03T16:22:51.769Z,17.57
2019-02-03T16:25:22.448Z,17.40
2019-02-03T16:27:51.533Z,22.70
2019-02-03T16:30:22.655Z,25.60
2019-02-03T16:32:51.383Z,17.50
2019-02-03T16:35:20.443Z,27.23
2019-02-03T16:37:49.181Z,18.53
2019-02-03T16:40:20.004Z,17.90
2019-02-03T16:42:48.692Z,19.83
2019-02-03T16:45:17.647Z,23.70
2019-02-03T16:47:46.409Z,24.10
2019-02-03T16:50:20.543Z,23.13
2019-02-03T16:52:49.333Z,16.20
2019-02-03T16:55:18.176Z,23.13
2019-02-03T16:57:47.169Z,19.70
2019-02-03T17:00:17.526Z,16.80
2019-02-03T17:02:46.461Z,27.83
2019-02-03T17:05:25.412Z,26.47
2019-02-03T17:07:47.559Z,17.70
2019-02-03T17:10:18.375Z,17.17
2019-02-03T17:12:47.097Z,25.97
2019-02-03T17:15:25.393Z,19.40
2019-02-03T17:17:54.563Z,20.90
2019-02-03T17:20:23.336Z,25.43
2019-02-03T17:22:52.775Z,17.50
2019-02-03T17:25:23.812Z,17.27
2019-02-03T17:27:52.500Z,17.13
2019-02-03T17:30:21.259Z,19.30
2019-02-03T17:32:50.176Z,17.47
2019-02-03T17:35:18.923Z,24.90
2019-02-03T17:37:48.047Z,20.27
2019-02-03T17:40:16.842Z,19.07
2019-02-03T17:42:45.570Z,20.33
2019-02-03T17:45:16.454Z,17.33
2019-02-03T17:47:45.111Z,18.97
2019-02-03T17:50:16.239Z,24.07
2019-02-03T17:52:45.079Z,21.60
2019-02-03T17:55:15.437Z,17.95
2019-02-03T17:57:44.259Z,18.47
2019-02-03T18:00:46.831Z,20.77
2019-02-03T18:03:15.849Z,20.20
2019-02-03T18:05:44.520Z,23.50
2019-02-03T18:08:13.701Z,23.17
2019-02-03T18:10:42.540Z,22.87
2019-02-03T18:13:11.265Z,21.67
2019-02-03T18:15:39.987Z,23.52
2019-02-03T18:18:09.332Z,30.37
2019-02-03T18:20:38.075Z,25.60
2019-02-03T18:23:07.266Z,23.52
2019-02-03T18:25:36.124Z,34.73
2019-02-03T18:28:04.859Z,20.55
2019-02-03T18:30:33.594Z,20.50
2019-02-03T18:33:02.664Z,21.30
2019-02-03T18:35:31.398Z,23.30
2019-02-03T18:38:00.448Z,14.45
2019-02-03T18:40:29.071Z,16.82
2019-02-03T18:42:57.815Z,20.08
2019-02-03T18:45:26.791Z,19.57
2019-02-03T18:47:55.551Z,26.03
2019-02-03T18:50:24.314Z,21.42
2019-02-03T18:52:53.587Z,25.00
2019-02-03T18:55:27.239Z,23.30
2019-02-03T18:57:56.031Z,25.30
2019-02-03T19:00:26.918Z,24.37
2019-02-03T19:02:55.666Z,25.47
2019-02-03T19:05:26.468Z,21.85
2019-02-03T19:07:55.324Z,22.40
2019-02-03T19:10:24.399Z,20.32
2019-02-03T19:12:53.307Z,29.77
2019-02-03T19:15:22.468Z,20.20
2019-02-03T19:17:51.585Z,24.00
2019-02-03T19:20:22.479Z,19.23
2019-02-03T19:22:51.131Z,22.35
2019-02-03T19:25:20.170Z,25.00
2019-02-03T19:27:48.919Z,20.35
2019-02-03T19:30:18.850Z,19.40
2019-02-03T19:32:47.922Z,30.17
2019-02-03T19:35:16.911Z,22.45
2019-02-03T19:37:45.625Z,24.52
2019-02-03T19:40:16.541Z,20.25
2019-02-03T19:42:45.234Z,24.50
2019-02-03T19:45:15.127Z,23.02
2019-02-03T19:47:44.101Z,24.63
2019-02-03T19:50:15.276Z,22.42
2019-02-03T19:52:44.188Z,21.55
2019-02-03T19:55:13.279Z,18.87
2019-02-03T19:57:41.998Z,20.97
2019-02-03T20:00:14.674Z,21.87
2019-02-03T20:02:43.439Z,19.35
2019-02-03T20:05:12.163Z,22.20
2019-02-03T20:07:40.830Z,22.77
2019-02-03T20:10:11.775Z,22.85
2019-02-03T20:12:40.387Z,24.45
2019-02-03T20:15:10.490Z,23.50
2019-02-03T20:17:39.332Z,21.05
2019-02-03T20:20:10.984Z,19.20
2019-02-03T20:22:39.657Z,18.27
2019-02-03T20:25:09.870Z,19.65
2019-02-03T20:27:38.576Z,22.67
2019-02-03T20:30:10.881Z,21.70
2019-02-03T20:32:39.534Z,20.52
2019-02-03T20:35:10.157Z,23.05
2019-02-03T20:37:39.200Z,23.65
2019-02-03T20:40:09.687Z,19.95
2019-02-03T20:42:38.484Z,17.60
2019-02-03T20:45:07.986Z,21.90
2019-02-03T20:47:36.624Z,17.60
2019-02-03T20:50:08.296Z,22.98
2019-02-03T20:52:36.936Z,18.20
2019-02-03T20:55:06.426Z,15.88
2019-02-03T20:57:35.419Z,13.83
2019-02-03T21:00:05.923Z,21.37
2019-02-03T21:02:34.739Z,18.35
2019-02-03T21:05:03.387Z,15.68
2019-02-03T21:07:32.094Z,18.17
2019-02-03T21:10:00.842Z,13.93
2019-02-03T21:12:29.477Z,13.88
2019-02-03T21:14:58.164Z,16.52
2019-02-03T21:17:26.877Z,16.57
2019-02-03T21:19:55.551Z,18.80
2019-02-03T21:22:24.163Z,18.97
2019-02-03T21:24:52.914Z,17.77
2019-02-03T21:27:21.927Z,13.70
2019-02-03T21:29:50.635Z,14.13
2019-02-03T21:32:19.364Z,14.73
2019-02-03T21:34:48.159Z,13.03
2019-02-03T21:37:16.863Z,10.72
2019-02-03T21:39:46.361Z,13.60
2019-02-03T21:42:15.342Z,12.73
2019-02-03T21:44:43.995Z,17.23
2019-02-03T21:47:12.701Z,15.00
2019-02-03T21:49:41.402Z,19.52
2019-02-03T21:52:10.152Z,16.52
2019-02-03T21:54:38.791Z,12.82
2019-02-03T21:57:07.778Z,13.25
2019-02-03T21:59:36.453Z,14.23
2019-02-03T22:02:05.181Z,16.37
2019-02-03T22:04:33.907Z,14.55
2019-02-03T22:07:02.623Z,24.52
2019-02-03T22:09:31.278Z,20.80
2019-02-03T22:12:00.065Z,17.17
2019-02-03T22:14:28.712Z,19.37
2019-02-03T22:16:57.340Z,18.30
2019-02-03T22:19:25.969Z,14.13
2019-02-03T22:21:54.575Z,15.90
2019-02-03T22:24:23.750Z,16.75
2019-02-03T22:26:52.368Z,16.80
2019-02-03T22:29:20.995Z,15.15
2019-02-03T22:31:49.632Z,16.73
2019-02-03T22:34:18.347Z,12.85
2019-02-03T22:36:47.053Z,15.93
2019-02-03T22:39:16.050Z,18.25
2019-02-03T22:41:47.005Z,18.55
2019-02-03T22:44:15.069Z,18.37
2019-02-03T22:46:43.685Z,17.07
2019-02-03T22:49:12.363Z,22.50
2019-02-03T22:51:40.987Z,14.65
2019-02-03T22:54:09.843Z,20.85
2019-02-03T22:56:38.551Z,23.40
2019-02-03T22:59:07.266Z,14.93
2019-02-03T23:01:37.677Z,20.25
2019-02-03T23:04:26.820Z,16.07
2019-02-03T23:06:55.680Z,14.58
2019-02-03T23:09:33.849Z,19.65
2019-02-03T23:12:05.270Z,24.75
2019-02-03T23:14:33.988Z,20.35
2019-02-03T23:17:02.883Z,16.25
2019-02-03T23:19:31.540Z,8.10
2019-02-03T23:22:00.884Z,10.72
2019-02-03T23:24:29.715Z,20.48
2019-02-03T23:26:58.343Z,15.38
2019-02-03T23:29:27.059Z,17.35
2019-02-03T23:31:55.747Z,13.70
2019-02-03T23:34:24.530Z,13.28
2019-02-03T23:36:53.388Z,9.75
2019-02-03T23:39:22.056Z,16.60
2019-02-03T23:41:50.703Z,19.70
2019-02-03T23:44:19.341Z,11.95
2019-02-03T23:46:48.039Z,18.23
2019-02-03T23:49:16.948Z,20.97
2019-02-03T23:51:45.893Z,11.35
2019-02-03T23:54:14.719Z,12.00
2019-02-03T23:56:43.648Z,16.07
2019-02-03T23:59:12.258Z,17.85
